sensor_id;sensor_type;location;lat;lon;timestamp;P1;durP1;ratioP1;P2;durP2;ratioP2
79401;SDS011;68857;47.916;106.940;2024-01-15T00:01:21;31.63;;;13.52;;
79401;SDS011;68857;47.916;106.940;2024-01-15T00:03:47;37.63;;;13.10;;
79401;SDS011;68857;47.916;106.940;2024-01-15T00:06:14;33.45;;;16.35;;
79401;SDS011;68857;47.916;106.940;2024-01-15T00:08:40;39.25;;;15.18;;
79401;SDS011;68857;47.916;106.940;2024-01-15T00:11:06;32.67;;;13.32;;
79401;SDS011;68857;47.916;106.940;2024-01-15T00:13:33;32.92;;;13.82;;
79401;SDS011;68857;47.916;106.940;2024-01-15T00:15:59;39.13;;;14.30;;
79401;SDS011;68857;47.916;106.940;2024-01-15T00:18:26;37.72;;;16.27;;
79401;SDS011;68857;47.916;106.940;2024-01-15T00:20:52;36.30;;;14.85;;
79401;SDS011;68857;47.916;106.940;2024-01-15T00:23:18;37.53;;;14.00;;
79401;SDS011;68857;47.916;106.940;2024-01-15T00:25:45;37.67;;;14.85;;
79401;SDS011;68857;47.916;106.940;2024-01-15T00:28:11;33.95;;;13.60;;
79401;SDS011;68857;47.916;106.940;2024-01-15T00:30:37;36.75;;;13.98;;
79401;SDS011;68857;47.916;106.940;2024-01-15T00:33:04;37.25;;;15.57;;
79401;SDS011;68857;47.916;106.940;2024-01-15T00:35:30;37.60;;;14.68;;
79401;SDS011;68857;47.916;106.940;2024-01-15T00:37:57;38.70;;;17.13;;
79401;SDS011;68857;47.916;106.940;2024-01-15T00:40:23;37.17;;;15.50;;
79401;SDS011;68857;47.916;106.940;2024-01-15T00:42:51;40.70;;;15.95;;
79401;SDS011;68857;47.916;106.940;2024-01-15T00:45:17;35.80;;;14.93;;
79401;SDS011;68857;47.916;106.940;2024-01-15T00:47:43;38.58;;;14.18;;
79401;SDS011;68857;47.916;106.940;2024-01-15T00:50:10;33.00;;;13.95;;
79401;SDS011;68857;47.916;106.940;2024-01-15T00:52:36;34.15;;;13.85;;
79401;SDS011;68857;47.916;106.940;2024-01-15T00:55:03;34.97;;;14.30;;
79401;SDS011;68857;47.916;106.940;2024-01-15T00:57:29;38.95;;;14.88;;
79401;SDS011;68857;47.916;106.940;2024-01-15T00:59:55;41.97;;;16.33;;
79401;SDS011;68857;47.916;106.940;2024-01-15T01:02:22;33.30;;;15.75;;
79401;SDS011;68857;47.916;106.940;2024-01-15T01:04:48;43.60;;;16.92;;
79401;SDS011;68857;47.916;106.940;2024-01-15T01:07:14;40.17;;;17.00;;
79401;SDS011;68857;47.916;106.940;2024-01-15T01:09:41;44.60;;;16.25;;
79401;SDS011;68857;47.916;106.940;2024-01-15T01:12:10;46.25;;;16.65;;
79401;SDS011;68857;47.916;106.940;2024-01-15T01:14:37;42.60;;;16.77;;
79401;SDS011;68857;47.916;106.940;2024-01-15T01:17:03;51.10;;;17.63;;
79401;SDS011;68857;47.916;106.940;2024-01-15T01:19:30;46.25;;;18.00;;
79401;SDS011;68857;47.916;106.940;2024-01-15T01:21:56;44.47;;;15.68;;
79401;SDS011;68857;47.916;106.940;2024-01-15T01:24:22;45.05;;;15.98;;
79401;SDS011;68857;47.916;106.940;2024-01-15T01:26:49;50.08;;;16.80;;
79401;SDS011;68857;47.916;106.940;2024-01-15T01:29:15;42.58;;;17.25;;
79401;SDS011;68857;47.916;106.940;2024-01-15T01:31:42;45.80;;;17.95;;
79401;SDS011;68857;47.916;106.940;2024-01-15T01:34:09;46.58;;;17.30;;
79401;SDS011;68857;47.916;106.940;2024-01-15T01:36:36;47.50;;;16.90;;
79401;SDS011;68857;47.916;106.940;2024-01-15T01:39:02;42.53;;;16.67;;
79401;SDS011;68857;47.916;106.940;2024-01-15T01:41:28;52.45;;;19.45;;
79401;SDS011;68857;47.916;106.940;2024-01-15T01:43:55;52.30;;;20.05;;
79401;SDS011;68857;47.916;106.940;2024-01-15T01:46:22;57.42;;;20.42;;
79401;SDS011;68857;47.916;106.940;2024-01-15T01:48:48;54.40;;;19.83;;
79401;SDS011;68857;47.916;106.940;2024-01-15T01:51:15;54.58;;;19.30;;
79401;SDS011;68857;47.916;106.940;2024-01-15T01:53:43;52.05;;;22.48;;
79401;SDS011;68857;47.916;106.940;2024-01-15T01:56:10;57.65;;;22.42;;
79401;SDS011;68857;47.916;106.940;2024-01-15T01:58:38;54.80;;;23.90;;
79401;SDS011;68857;47.916;106.940;2024-01-15T02:01:04;56.05;;;23.80;;
79401;SDS011;68857;47.916;106.940;2024-01-15T02:03:31;61.20;;;23.25;;
79401;SDS011;68857;47.916;106.940;2024-01-15T02:05:58;58.85;;;22.75;;
79401;SDS011;68857;47.916;106.940;2024-01-15T02:08:27;59.08;;;24.48;;
79401;SDS011;68857;47.916;106.940;2024-01-15T02:10:53;63.95;;;25.35;;
79401;SDS011;68857;47.916;106.940;2024-01-15T02:13:19;62.58;;;24.52;;
79401;SDS011;68857;47.916;106.940;2024-01-15T02:15:46;62.53;;;25.85;;
79401;SDS011;68857;47.916;106.940;2024-01-15T02:18:12;60.55;;;24.40;;
79401;SDS011;68857;47.916;106.940;2024-01-15T02:20:38;56.92;;;23.40;;
79401;SDS011;68857;47.916;106.940;2024-01-15T02:25:31;58.80;;;23.20;;
79401;SDS011;68857;47.916;106.940;2024-01-15T02:27:58;49.10;;;21.05;;
79401;SDS011;68857;47.916;106.940;2024-01-15T02:30:25;46.33;;;21.08;;
79401;SDS011;68857;47.916;106.940;2024-01-15T02:35:17;49.28;;;20.67;;
79401;SDS011;68857;47.916;106.940;2024-01-15T02:37:43;43.17;;;17.58;;
79401;SDS011;68857;47.916;106.940;2024-01-15T02:40:10;42.42;;;16.85;;
79401;SDS011;68857;47.916;106.940;2024-01-15T02:42:36;47.45;;;18.25;;
79401;SDS011;68857;47.916;106.940;2024-01-15T02:45:03;43.45;;;19.40;;
79401;SDS011;68857;47.916;106.940;2024-01-15T02:47:30;39.78;;;18.92;;
79401;SDS011;68857;47.916;106.940;2024-01-15T02:49:56;35.90;;;16.42;;
79401;SDS011;68857;47.916;106.940;2024-01-15T02:52:22;40.90;;;17.70;;
79401;SDS011;68857;47.916;106.940;2024-01-15T02:54:49;35.97;;;16.67;;
79401;SDS011;68857;47.916;106.940;2024-01-15T02:57:15;41.40;;;14.57;;
79401;SDS011;68857;47.916;106.940;2024-01-15T02:59:42;36.20;;;14.20;;
79401;SDS011;68857;47.916;106.940;2024-01-15T03:02:08;36.80;;;14.80;;
79401;SDS011;68857;47.916;106.940;2024-01-15T03:04:34;34.33;;;13.63;;
79401;SDS011;68857;47.916;106.940;2024-01-15T03:07:01;33.25;;;14.27;;
79401;SDS011;68857;47.916;106.940;2024-01-15T03:09:27;31.35;;;13.27;;
79401;SDS011;68857;47.916;106.940;2024-01-15T03:11:53;34.25;;;15.45;;
79401;SDS011;68857;47.916;106.940;2024-01-15T03:14:20;29.38;;;12.25;;
79401;SDS011;68857;47.916;106.940;2024-01-15T03:16:49;32.60;;;13.45;;
79401;SDS011;68857;47.916;106.940;2024-01-15T03:19:15;33.47;;;12.70;;
79401;SDS011;68857;47.916;106.940;2024-01-15T03:21:41;31.73;;;12.80;;
79401;SDS011;68857;47.916;106.940;2024-01-15T03:24:08;31.10;;;13.75;;
79401;SDS011;68857;47.916;106.940;2024-01-15T03:26:34;32.75;;;13.73;;
79401;SDS011;68857;47.916;106.940;2024-01-15T03:29:00;31.48;;;12.93;;
79401;SDS011;68857;47.916;106.940;2024-01-15T03:31:27;28.92;;;11.48;;
79401;SDS011;68857;47.916;106.940;2024-01-15T03:33:53;31.25;;;14.30;;
79401;SDS011;68857;47.916;106.940;2024-01-15T03:36:19;25.27;;;11.90;;
79401;SDS011;68857;47.916;106.940;2024-01-15T03:38:46;31.05;;;12.40;;
79401;SDS011;68857;47.916;106.940;2024-01-15T03:41:12;26.30;;;11.77;;
79401;SDS011;68857;47.916;106.940;2024-01-15T03:43:39;36.55;;;11.48;;
79401;SDS011;68857;47.916;106.940;2024-01-15T03:46:05;28.95;;;11.15;;
79401;SDS011;68857;47.916;106.940;2024-01-15T03:48:31;28.20;;;10.85;;
79401;SDS011;68857;47.916;106.940;2024-01-15T03:50:58;26.63;;;10.75;;
79401;SDS011;68857;47.916;106.940;2024-01-15T03:53:24;26.95;;;9.82;;
79401;SDS011;68857;47.916;106.940;2024-01-15T03:55:51;23.73;;;10.07;;
79401;SDS011;68857;47.916;106.940;2024-01-15T03:58:18;26.27;;;10.80;;
79401;SDS011;68857;47.916;106.940;2024-01-15T04:00:44;26.05;;;11.38;;
79401;SDS011;68857;47.916;106.940;2024-01-15T04:03:10;25.58;;;10.15;;
79401;SDS011;68857;47.916;106.940;2024-01-15T04:05:37;26.67;;;9.93;;
79401;SDS011;68857;47.916;106.940;2024-01-15T04:08:04;28.20;;;10.90;;
79401;SDS011;68857;47.916;106.940;2024-01-15T04:10:31;25.42;;;9.93;;
79401;SDS011;68857;47.916;106.940;2024-01-15T04:12:57;23.58;;;9.73;;
79401;SDS011;68857;47.916;106.940;2024-01-15T04:15:25;27.83;;;10.77;;
79401;SDS011;68857;47.916;106.940;2024-01-15T04:17:51;24.45;;;11.40;;
79401;SDS011;68857;47.916;106.940;2024-01-15T04:20:18;23.77;;;11.32;;
79401;SDS011;68857;47.916;106.940;2024-01-15T04:22:44;27.88;;;9.93;;
79401;SDS011;68857;47.916;106.940;2024-01-15T04:25:10;27.33;;;9.68;;
79401;SDS011;68857;47.916;106.940;2024-01-15T04:27:37;23.23;;;10.63;;
79401;SDS011;68857;47.916;106.940;2024-01-15T04:30:03;22.77;;;9.07;;
79401;SDS011;68857;47.916;106.940;2024-01-15T04:32:30;27.95;;;10.98;;
79401;SDS011;68857;47.916;106.940;2024-01-15T04:34:56;25.98;;;11.90;;
79401;SDS011;68857;47.916;106.940;2024-01-15T04:37:23;23.30;;;9.27;;
79401;SDS011;68857;47.916;106.940;2024-01-15T04:39:49;24.58;;;9.88;;
79401;SDS011;68857;47.916;106.940;2024-01-15T04:42:18;29.10;;;10.68;;
79401;SDS011;68857;47.916;106.940;2024-01-15T04:44:44;28.20;;;11.30;;
79401;SDS011;68857;47.916;106.940;2024-01-15T04:47:11;23.52;;;10.38;;
79401;SDS011;68857;47.916;106.940;2024-01-15T04:49:37;27.90;;;10.82;;
79401;SDS011;68857;47.916;106.940;2024-01-15T04:52:03;25.73;;;10.10;;
79401;SDS011;68857;47.916;106.940;2024-01-15T04:54:30;27.75;;;10.18;;
79401;SDS011;68857;47.916;106.940;2024-01-15T04:56:56;26.92;;;10.68;;
79401;SDS011;68857;47.916;106.940;2024-01-15T04:59:22;23.27;;;9.32;;
79401;SDS011;68857;47.916;106.940;2024-01-15T05:01:49;22.73;;;9.63;;
79401;SDS011;68857;47.916;106.940;2024-01-15T05:04:15;22.98;;;10.63;;
79401;SDS011;68857;47.916;106.940;2024-01-15T05:06:42;24.55;;;10.40;;
79401;SDS011;68857;47.916;106.940;2024-01-15T05:09:08;22.80;;;9.55;;
79401;SDS011;68857;47.916;106.940;2024-01-15T05:11:34;21.77;;;9.48;;
79401;SDS011;68857;47.916;106.940;2024-01-15T05:14:01;24.65;;;9.95;;
79401;SDS011;68857;47.916;106.940;2024-01-15T05:16:27;24.33;;;11.20;;
79401;SDS011;68857;47.916;106.940;2024-01-15T05:18:53;25.65;;;9.95;;
79401;SDS011;68857;47.916;106.940;2024-01-15T05:21:20;22.35;;;9.85;;
79401;SDS011;68857;47.916;106.940;2024-01-15T05:23:46;21.17;;;9.85;;
79401;SDS011;68857;47.916;106.940;2024-01-15T05:26:13;21.20;;;8.82;;
79401;SDS011;68857;47.916;106.940;2024-01-15T05:28:42;23.25;;;9.10;;
79401;SDS011;68857;47.916;106.940;2024-01-15T05:31:08;20.73;;;8.00;;
79401;SDS011;68857;47.916;106.940;2024-01-15T05:33:36;21.67;;;8.65;;
79401;SDS011;68857;47.916;106.940;2024-01-15T05:38:29;18.50;;;8.18;;
79401;SDS011;68857;47.916;106.940;2024-01-15T05:40:55;20.48;;;7.50;;
79401;SDS011;68857;47.916;106.940;2024-01-15T05:43:21;19.63;;;7.75;;
79401;SDS011;68857;47.916;106.940;2024-01-15T05:45:48;20.25;;;8.80;;
79401;SDS011;68857;47.916;106.940;2024-01-15T05:48:14;20.67;;;7.90;;
79401;SDS011;68857;47.916;106.940;2024-01-15T05:50:41;21.83;;;7.90;;
79401;SDS011;68857;47.916;106.940;2024-01-15T05:53:07;18.75;;;7.95;;
79401;SDS011;68857;47.916;106.940;2024-01-15T05:55:35;20.48;;;8.35;;
79401;SDS011;68857;47.916;106.940;2024-01-15T05:58:01;14.85;;;6.70;;
79401;SDS011;68857;47.916;106.940;2024-01-15T06:00:28;17.67;;;7.05;;
79401;SDS011;68857;47.916;106.940;2024-01-15T06:02:54;18.20;;;8.02;;
79401;SDS011;68857;47.916;106.940;2024-01-15T06:05:20;20.42;;;8.18;;
79401;SDS011;68857;47.916;106.940;2024-01-15T06:07:47;18.42;;;7.03;;
79401;SDS011;68857;47.916;106.940;2024-01-15T06:10:13;16.60;;;7.05;;
79401;SDS011;68857;47.916;106.940;2024-01-15T06:12:40;17.48;;;6.70;;
79401;SDS011;68857;47.916;106.940;2024-01-15T06:15:06;17.38;;;7.45;;
79401;SDS011;68857;47.916;106.940;2024-01-15T06:17:32;17.52;;;7.78;;
79401;SDS011;68857;47.916;106.940;2024-01-15T06:19:59;17.77;;;8.32;;
79401;SDS011;68857;47.916;106.940;2024-01-15T06:22:25;14.98;;;6.93;;
79401;SDS011;68857;47.916;106.940;2024-01-15T06:24:52;15.00;;;6.55;;
79401;SDS011;68857;47.916;106.940;2024-01-15T06:27:18;16.38;;;6.88;;
79401;SDS011;68857;47.916;106.940;2024-01-15T06:29:45;17.00;;;6.97;;
79401;SDS011;68857;47.916;106.940;2024-01-15T06:32:14;16.42;;;6.15;;
79401;SDS011;68857;47.916;106.940;2024-01-15T06:34:41;16.00;;;6.78;;
79401;SDS011;68857;47.916;106.940;2024-01-15T06:37:07;15.52;;;6.13;;
79401;SDS011;68857;47.916;106.940;2024-01-15T06:39:33;15.45;;;6.78;;
79401;SDS011;68857;47.916;106.940;2024-01-15T06:42:00;18.50;;;7.93;;
79401;SDS011;68857;47.916;106.940;2024-01-15T06:44:26;17.95;;;7.75;;
79401;SDS011;68857;47.916;106.940;2024-01-15T06:46:53;20.35;;;8.45;;
79401;SDS011;68857;47.916;106.940;2024-01-15T06:49:22;19.67;;;8.02;;
79401;SDS011;68857;47.916;106.940;2024-01-15T06:54:15;19.27;;;7.60;;
79401;SDS011;68857;47.916;106.940;2024-01-15T06:56:41;20.23;;;8.27;;
79401;SDS011;68857;47.916;106.940;2024-01-15T06:59:08;17.60;;;7.68;;
79401;SDS011;68857;47.916;106.940;2024-01-15T07:01:34;18.88;;;7.57;;
79401;SDS011;68857;47.916;106.940;2024-01-15T07:04:00;18.13;;;7.80;;
79401;SDS011;68857;47.916;106.940;2024-01-15T07:06:27;17.42;;;6.82;;
79401;SDS011;68857;47.916;106.940;2024-01-15T07:08:53;20.02;;;8.30;;
79401;SDS011;68857;47.916;106.940;2024-01-15T07:11:20;17.35;;;7.47;;
79401;SDS011;68857;47.916;106.940;2024-01-15T07:13:46;15.40;;;6.47;;
79401;SDS011;68857;47.916;106.940;2024-01-15T07:16:13;14.80;;;6.60;;
79401;SDS011;68857;47.916;106.940;2024-01-15T07:18:39;17.30;;;7.88;;
79401;SDS011;68857;47.916;106.940;2024-01-15T07:21:06;16.70;;;8.52;;
79401;SDS011;68857;47.916;106.940;2024-01-15T07:23:32;13.98;;;6.70;;
79401;SDS011;68857;47.916;106.940;2024-01-15T07:25:58;17.45;;;7.25;;
79401;SDS011;68857;47.916;106.940;2024-01-15T07:28:25;15.02;;;7.80;;
79401;SDS011;68857;47.916;106.940;2024-01-15T07:30:51;13.02;;;7.18;;
79401;SDS011;68857;47.916;106.940;2024-01-15T07:33:18;17.90;;;7.10;;
79401;SDS011;68857;47.916;106.940;2024-01-15T07:35:44;17.35;;;7.38;;
79401;SDS011;68857;47.916;106.940;2024-01-15T07:38:10;14.55;;;7.20;;
79401;SDS011;68857;47.916;106.940;2024-01-15T07:40:37;16.77;;;6.60;;
79401;SDS011;68857;47.916;106.940;2024-01-15T07:43:03;16.20;;;7.05;;
79401;SDS011;68857;47.916;106.940;2024-01-15T07:45:30;16.83;;;7.35;;
79401;SDS011;68857;47.916;106.940;2024-01-15T07:47:56;15.93;;;8.10;;
79401;SDS011;68857;47.916;106.940;2024-01-15T07:50:23;17.60;;;7.40;;
79401;SDS011;68857;47.916;106.940;2024-01-15T07:52:49;18.92;;;8.05;;
79401;SDS011;68857;47.916;106.940;2024-01-15T07:55:16;21.13;;;8.75;;
79401;SDS011;68857;47.916;106.940;2024-01-15T07:57:42;15.43;;;8.27;;
79401;SDS011;68857;47.916;106.940;2024-01-15T08:00:08;19.27;;;7.07;;
79401;SDS011;68857;47.916;106.940;2024-01-15T08:02:36;19.17;;;9.07;;
79401;SDS011;68857;47.916;106.940;2024-01-15T08:05:02;17.88;;;7.88;;
79401;SDS011;68857;47.916;106.940;2024-01-15T08:07:28;20.85;;;8.77;;
79401;SDS011;68857;47.916;106.940;2024-01-15T08:09:55;21.80;;;8.48;;
79401;SDS011;68857;47.916;106.940;2024-01-15T08:12:21;16.77;;;8.30;;
79401;SDS011;68857;47.916;106.940;2024-01-15T08:14:47;17.92;;;7.47;;
79401;SDS011;68857;47.916;106.940;2024-01-15T08:17:14;18.38;;;8.02;;
79401;SDS011;68857;47.916;106.940;2024-01-15T08:19:41;19.27;;;8.48;;
79401;SDS011;68857;47.916;106.940;2024-01-15T08:22:08;21.25;;;8.57;;
79401;SDS011;68857;47.916;106.940;2024-01-15T08:24:35;21.27;;;9.15;;
79401;SDS011;68857;47.916;106.940;2024-01-15T08:27:01;20.63;;;8.90;;
79401;SDS011;68857;47.916;106.940;2024-01-15T08:29:30;18.08;;;8.38;;
79401;SDS011;68857;47.916;106.940;2024-01-15T08:31:58;22.60;;;8.10;;
79401;SDS011;68857;47.916;106.940;2024-01-15T08:34:25;19.45;;;8.43;;
79401;SDS011;68857;47.916;106.940;2024-01-15T08:36:51;22.35;;;9.10;;
79401;SDS011;68857;47.916;106.940;2024-01-15T08:39:17;22.17;;;9.63;;
79401;SDS011;68857;47.916;106.940;2024-01-15T08:41:44;25.13;;;8.38;;
79401;SDS011;68857;47.916;106.940;2024-01-15T08:44:12;22.98;;;9.85;;
79401;SDS011;68857;47.916;106.940;2024-01-15T08:46:38;23.33;;;10.07;;
79401;SDS011;68857;47.916;106.940;2024-01-15T08:49:04;20.58;;;9.07;;
79401;SDS011;68857;47.916;106.940;2024-01-15T08:51:31;24.55;;;9.80;;
79401;SDS011;68857;47.916;106.940;2024-01-15T08:53:57;22.30;;;9.73;;
79401;SDS011;68857;47.916;106.940;2024-01-15T08:56:24;24.85;;;10.13;;
79401;SDS011;68857;47.916;106.940;2024-01-15T08:58:52;22.88;;;10.27;;
79401;SDS011;68857;47.916;106.940;2024-01-15T09:01:18;23.77;;;9.77;;
79401;SDS011;68857;47.916;106.940;2024-01-15T09:03:45;23.63;;;9.98;;
79401;SDS011;68857;47.916;106.940;2024-01-15T09:06:13;22.25;;;8.80;;
79401;SDS011;68857;47.916;106.940;2024-01-15T09:08:39;25.00;;;10.20;;
79401;SDS011;68857;47.916;106.940;2024-01-15T09:11:06;23.50;;;10.55;;
79401;SDS011;68857;47.916;106.940;2024-01-15T09:13:32;26.40;;;11.05;;
79401;SDS011;68857;47.916;106.940;2024-01-15T09:15:59;23.20;;;9.82;;
79401;SDS011;68857;47.916;106.940;2024-01-15T09:18:26;20.83;;;9.75;;
79401;SDS011;68857;47.916;106.940;2024-01-15T09:20:53;23.02;;;9.70;;
79401;SDS011;68857;47.916;106.940;2024-01-15T09:23:19;23.80;;;10.43;;
79401;SDS011;68857;47.916;106.940;2024-01-15T09:25:45;23.10;;;11.27;;
79401;SDS011;68857;47.916;106.940;2024-01-15T09:28:13;22.00;;;11.20;;
79401;SDS011;68857;47.916;106.940;2024-01-15T09:30:39;22.05;;;9.00;;
79401;SDS011;68857;47.916;106.940;2024-01-15T09:33:06;23.25;;;11.52;;
79401;SDS011;68857;47.916;106.940;2024-01-15T09:35:32;26.63;;;11.07;;
79401;SDS011;68857;47.916;106.940;2024-01-15T09:37:59;23.05;;;10.95;;
79401;SDS011;68857;47.916;106.940;2024-01-15T09:40:25;27.40;;;12.35;;
79401;SDS011;68857;47.916;106.940;2024-01-15T09:42:57;29.88;;;12.13;;
79401;SDS011;68857;47.916;106.940;2024-01-15T09:45:25;27.08;;;11.63;;
79401;SDS011;68857;47.916;106.940;2024-01-15T09:47:51;27.73;;;11.35;;
79401;SDS011;68857;47.916;106.940;2024-01-15T09:50:18;24.42;;;11.32;;
79401;SDS011;68857;47.916;106.940;2024-01-15T09:55:11;33.22;;;13.57;;
79401;SDS011;68857;47.916;106.940;2024-01-15T09:57:40;28.42;;;12.80;;
79401;SDS011;68857;47.916;106.940;2024-01-15T10:00:07;30.83;;;12.45;;
79401;SDS011;68857;47.916;106.940;2024-01-15T10:02:35;31.30;;;13.80;;
79401;SDS011;68857;47.916;106.940;2024-01-15T10:05:02;30.02;;;13.05;;
79401;SDS011;68857;47.916;106.940;2024-01-15T10:07:30;38.25;;;14.93;;
79401;SDS011;68857;47.916;106.940;2024-01-15T10:09:56;37.28;;;14.95;;
79401;SDS011;68857;47.916;106.940;2024-01-15T10:12:22;31.48;;;14.50;;
79401;SDS011;68857;47.916;106.940;2024-01-15T10:14:50;37.45;;;14.95;;
79401;SDS011;68857;47.916;106.940;2024-01-15T10:17:16;36.67;;;15.38;;
79401;SDS011;68857;47.916;106.940;2024-01-15T10:19:44;37.30;;;15.77;;
79401;SDS011;68857;47.916;106.940;2024-01-15T10:22:13;34.63;;;15.80;;
79401;SDS011;68857;47.916;106.940;2024-01-15T10:24:40;42.28;;;17.33;;
79401;SDS011;68857;47.916;106.940;2024-01-15T10:27:10;38.65;;;17.83;;
79401;SDS011;68857;47.916;106.940;2024-01-15T10:29:37;47.33;;;18.17;;
79401;SDS011;68857;47.916;106.940;2024-01-15T10:32:06;43.60;;;18.70;;
79401;SDS011;68857;47.916;106.940;2024-01-15T10:34:33;47.15;;;19.40;;
79401;SDS011;68857;47.916;106.940;2024-01-15T10:37:04;56.20;;;21.52;;
79401;SDS011;68857;47.916;106.940;2024-01-15T10:39:30;54.28;;;21.25;;
79401;SDS011;68857;47.916;106.940;2024-01-15T10:41:57;54.17;;;22.63;;
79401;SDS011;68857;47.916;106.940;2024-01-15T10:44:23;53.63;;;21.98;;
79401;SDS011;68857;47.916;106.940;2024-01-15T10:46:49;55.13;;;23.17;;
79401;SDS011;68857;47.916;106.940;2024-01-15T10:49:16;49.83;;;22.63;;
79401;SDS011;68857;47.916;106.940;2024-01-15T10:51:45;57.72;;;23.85;;
79401;SDS011;68857;47.916;106.940;2024-01-15T10:54:11;59.20;;;23.63;;
79401;SDS011;68857;47.916;106.940;2024-01-15T10:56:37;61.90;;;23.60;;
79401;SDS011;68857;47.916;106.940;2024-01-15T10:59:04;57.35;;;24.67;;
79401;SDS011;68857;47.916;106.940;2024-01-15T11:01:32;61.13;;;25.30;;
79401;SDS011;68857;47.916;106.940;2024-01-15T11:06:25;65.60;;;25.35;;
79401;SDS011;68857;47.916;106.940;2024-01-15T11:08:54;64.10;;;27.23;;
79401;SDS011;68857;47.916;106.940;2024-01-15T11:11:21;58.15;;;25.20;;
79401;SDS011;68857;47.916;106.940;2024-01-15T11:13:48;63.97;;;25.77;;
79401;SDS011;68857;47.916;106.940;2024-01-15T11:16:17;61.13;;;25.40;;
79401;SDS011;68857;47.916;106.940;2024-01-15T11:21:26;56.58;;;24.40;;
79401;SDS011;68857;47.916;106.940;2024-01-15T11:23:53;59.60;;;23.85;;
79401;SDS011;68857;47.916;106.940;2024-01-15T11:26:35;56.03;;;23.88;;
79401;SDS011;68857;47.916;106.940;2024-01-15T11:29:05;54.67;;;24.30;;
79401;SDS011;68857;47.916;106.940;2024-01-15T11:34:05;59.45;;;26.20;;
79401;SDS011;68857;47.916;106.940;2024-01-15T11:41:59;58.53;;;24.48;;
79401;SDS011;68857;47.916;106.940;2024-01-15T11:44:26;61.65;;;24.30;;
79401;SDS011;68857;47.916;106.940;2024-01-15T11:49:23;55.03;;;22.80;;
79401;SDS011;68857;47.916;106.940;2024-01-15T11:51:56;61.40;;;23.05;;
79401;SDS011;68857;47.916;106.940;2024-01-15T11:54:23;58.90;;;22.45;;
79401;SDS011;68857;47.916;106.940;2024-01-15T11:56:50;54.72;;;24.08;;
79401;SDS011;68857;47.916;106.940;2024-01-15T11:59:16;58.92;;;26.02;;
79401;SDS011;68857;47.916;106.940;2024-01-15T12:01:43;62.65;;;26.40;;
79401;SDS011;68857;47.916;106.940;2024-01-15T12:04:09;58.30;;;24.85;;
79401;SDS011;68857;47.916;106.940;2024-01-15T12:06:35;62.80;;;24.42;;
79401;SDS011;68857;47.916;106.940;2024-01-15T12:09:05;63.83;;;24.30;;
79401;SDS011;68857;47.916;106.940;2024-01-15T12:11:32;59.13;;;23.65;;
79401;SDS011;68857;47.916;106.940;2024-01-15T12:13:59;65.88;;;25.55;;
79401;SDS011;68857;47.916;106.940;2024-01-15T12:18:52;58.08;;;25.70;;
79401;SDS011;68857;47.916;106.940;2024-01-15T12:21:18;64.30;;;26.40;;
79401;SDS011;68857;47.916;106.940;2024-01-15T12:23:48;66.95;;;26.70;;
79401;SDS011;68857;47.916;106.940;2024-01-15T12:26:17;62.15;;;27.27;;
79401;SDS011;68857;47.916;106.940;2024-01-15T12:28:44;68.78;;;28.92;;
79401;SDS011;68857;47.916;106.940;2024-01-15T12:31:10;61.47;;;25.63;;
79401;SDS011;68857;47.916;106.940;2024-01-15T12:33:37;62.83;;;27.08;;
79401;SDS011;68857;47.916;106.940;2024-01-15T12:36:03;72.10;;;27.92;;
79401;SDS011;68857;47.916;106.940;2024-01-15T12:38:30;68.68;;;28.13;;
79401;SDS011;68857;47.916;106.940;2024-01-15T12:43:23;55.22;;;24.02;;
79401;SDS011;68857;47.916;106.940;2024-01-15T12:45:50;53.92;;;24.08;;
79401;SDS011;68857;47.916;106.940;2024-01-15T12:48:17;54.25;;;22.45;;
79401;SDS011;68857;47.916;106.940;2024-01-15T12:50:46;55.95;;;24.40;;
79401;SDS011;68857;47.916;106.940;2024-01-15T12:53:12;49.25;;;21.27;;
79401;SDS011;68857;47.916;106.940;2024-01-15T12:55:39;50.63;;;20.17;;
79401;SDS011;68857;47.916;106.940;2024-01-15T12:58:05;46.55;;;19.65;;
79401;SDS011;68857;47.916;106.940;2024-01-15T13:00:32;47.53;;;20.52;;
79401;SDS011;68857;47.916;106.940;2024-01-15T13:02:58;45.75;;;18.60;;
79401;SDS011;68857;47.916;106.940;2024-01-15T13:05:25;44.28;;;17.85;;
79401;SDS011;68857;47.916;106.940;2024-01-15T13:07:52;41.85;;;16.83;;
79401;SDS011;68857;47.916;106.940;2024-01-15T13:10:19;42.65;;;17.20;;
79401;SDS011;68857;47.916;106.940;2024-01-15T13:12:45;41.72;;;16.35;;
79401;SDS011;68857;47.916;106.940;2024-01-15T13:15:11;41.95;;;17.40;;
79401;SDS011;68857;47.916;106.940;2024-01-15T13:17:38;39.50;;;15.65;;
79401;SDS011;68857;47.916;106.940;2024-01-15T13:22:31;36.17;;;13.75;;
79401;SDS011;68857;47.916;106.940;2024-01-15T13:24:57;37.35;;;14.43;;
79401;SDS011;68857;47.916;106.940;2024-01-15T13:27:24;36.63;;;16.10;;
79401;SDS011;68857;47.916;106.940;2024-01-15T13:29:50;37.25;;;16.10;;
79401;SDS011;68857;47.916;106.940;2024-01-15T13:32:27;38.92;;;16.70;;
79401;SDS011;68857;47.916;106.940;2024-01-15T13:34:55;38.90;;;16.35;;
79401;SDS011;68857;47.916;106.940;2024-01-15T13:37:22;37.65;;;14.77;;
79401;SDS011;68857;47.916;106.940;2024-01-15T13:39:51;40.63;;;17.10;;
79401;SDS011;68857;47.916;106.940;2024-01-15T13:42:18;43.55;;;17.05;;
79401;SDS011;68857;47.916;106.940;2024-01-15T13:44:47;34.25;;;14.40;;
79401;SDS011;68857;47.916;106.940;2024-01-15T13:47:13;41.60;;;17.38;;
79401;SDS011;68857;47.916;106.940;2024-01-15T13:49:40;39.20;;;17.17;;
79401;SDS011;68857;47.916;106.940;2024-01-15T13:52:06;38.47;;;17.05;;
79401;SDS011;68857;47.916;106.940;2024-01-15T13:54:33;41.97;;;16.13;;
79401;SDS011;68857;47.916;106.940;2024-01-15T13:56:59;43.75;;;17.52;;
79401;SDS011;68857;47.916;106.940;2024-01-15T13:59:26;40.95;;;15.13;;
79401;SDS011;68857;47.916;106.940;2024-01-15T14:04:19;34.90;;;14.00;;
79401;SDS011;68857;47.916;106.940;2024-01-15T14:06:46;34.03;;;14.10;;
79401;SDS011;68857;47.916;106.940;2024-01-15T14:09:12;33.45;;;14.75;;
79401;SDS011;68857;47.916;106.940;2024-01-15T14:11:39;35.17;;;13.90;;
79401;SDS011;68857;47.916;106.940;2024-01-15T14:14:06;31.67;;;12.98;;
79401;SDS011;68857;47.916;106.940;2024-01-15T14:16:34;32.05;;;13.32;;
79401;SDS011;68857;47.916;106.940;2024-01-15T14:19:00;26.38;;;12.27;;
79401;SDS011;68857;47.916;106.940;2024-01-15T14:23:53;29.85;;;12.75;;
79401;SDS011;68857;47.916;106.940;2024-01-15T14:26:20;27.50;;;12.70;;
79401;SDS011;68857;47.916;106.940;2024-01-15T14:28:46;34.05;;;13.73;;
79401;SDS011;68857;47.916;106.940;2024-01-15T14:31:13;33.83;;;13.18;;
79401;SDS011;68857;47.916;106.940;2024-01-15T14:33:40;34.55;;;13.52;;
79401;SDS011;68857;47.916;106.940;2024-01-15T14:36:06;35.03;;;13.88;;
79401;SDS011;68857;47.916;106.940;2024-01-15T14:38:32;30.73;;;12.60;;